الصفحة الرئيسية
METAR-TAF:

METAR-TAF

مطار :

ساراتوغا, وايومنغ, الولايات المتحدة

دائرة عرض: 41-26-41N, خط طول: 106-49-25W, ارتفاع: 2137 متر

مراقبة الطقس الحالي

تاريخ ووقت الإصدار 7 دقيقة قبل الساعة 07:55UTC
رياح هادئة
درجة الحرارة -15°درجة مئوية
الرطوبة 78%
ضغط 1004 hPa
الرؤية: 16.1 كم
غيوم متفرقة على ارتفاع 12000 قدم

METAR: KSAA 210755Z AUTO 00000KT 10SM SCT120 M15/M18 A2965 RMK AO2

زمن: 01:02 (08:02 UTC)


TAF: مفقودة

أرصاد الطقس والتوقعات من أكثر من 4000 مطار (تقارير الطقس للمطار METAR والتنبؤ بالطقس بالمطارTAF).

المحطات المتاحة هي النقط الصفراء والحمراء على الخريطة.

حرك المؤشر فوق النقطة لمعرفة اسم المحطة.

ثم انقر لمعرفة أرصاد وتوقعات الطقس.

لتغيير الخارطة: اضغط على الأزرار الخضراء مع رمز الصليب الأسود للتكبير. على الزر الأخضر مع شرطة للتصغير، أو على الأسهم الخضراء للخرائط المجاورة.


METAR-TAF: